Decoded Metar for LFTH (HYERES in FRANCE) (IATA:TLN) | Meteo·Mobile Aviation Weather
aviador You're here:

LFTH Decoded Metar

HYERES in FRANCE
Report Time2018-12-16 17:00:00
UTC Time2018-12-16 17:06:48
Flight Rules vfr VFR
Wind340° at 04 kt
W.Decomp.*RWY 31: 3.5 kt HW 1.9 kt RCW
RWY 05: 1.3 kt HW 3.8 kt LCW
W.Rank340° ranks 5
Current wind is below 340° avg. (5.5)
Visibility9999 m
Phenomena:Light Rain
Mist
Clouds:Scattered 005 Hf
Expected CloudBase > 400 ft AGL from Temp-Dew spread
Ceiling3,000 ft
Temp08°C (ISA -7)
Dew Point07°C (93% RH)
AAT5.8°C
QNH1013 hPa
Density Alt-689 ft
Elevation13 ft
Report Wrong Elevation
Raw Report
METAR LFTH 161700Z AUTO 34004KT CAVOK 08/07 Q1013 TEMPO 4000 -RA
BR SCT005 BKN030TCU=

Extra information for LFTH:More info

Metar Taf Metar & Taf Last 4 Metars F.Rules Stats Wind Profile Meteogram Temp Stats Airport Information Weather charts Add Link Nearby VenuesMetar ALERT Operation Metar Decoded Social comments